Limbert, Mississippi
Current Conditions -  °F | °C
As of 12:15 PM on Friday 19 Dec 2014 (Local Time) from KPIB Reporting Station
Overcast Overcast  
Wind Chill: 45°   Ceiling: 2700
Heat Index: 48°   Visibility: 10mi
Dew Point: 39°   Wind: 8mph
Humidity: 71%   Direction: 50°NE
Pressure: 30.14"   Gusts: NA
Location:  31.6875°N, 89.1116°W
Report Text: KPIB 191815Z AUTO 05007KT 10SM OVC027 09/04 A3014 RMK AO1
Loading
Personal Weather Stations






























Interactive Weather Map New forecast layout! Learn more

10-Day Weather Forecast

Advertisements
Track Severe Weather on mobile